createdAt,value
2022-12-25T00:01:41.241Z,100397.08
2022-12-25T00:04:09.076Z,100393.96
2022-12-25T00:06:37.157Z,100395.27
2022-12-25T00:09:05.130Z,100393.66
2022-12-25T00:11:33.033Z,100393.95
2022-12-25T00:14:00.730Z,100394.98
2022-12-25T00:16:28.550Z,100392.20
2022-12-25T00:18:58.998Z,100390.73
2022-12-25T00:21:27.705Z,100391.44
2022-12-25T00:23:57.505Z,100396.20
2022-12-25T00:26:27.088Z,100396.38
2022-12-25T00:28:56.351Z,100396.28
2022-12-25T00:31:25.264Z,100395.40
2022-12-25T00:33:53.557Z,100400.52
2022-12-25T00:36:22.293Z,100406.14
2022-12-25T00:38:50.278Z,100406.60
2022-12-25T00:41:41.200Z,100405.19
2022-12-25T00:44:11.069Z,100401.07
2022-12-25T00:46:38.864Z,100405.99
2022-12-25T00:49:07.040Z,100403.04
2022-12-25T00:51:34.854Z,100404.16
2022-12-25T00:54:02.945Z,100408.95
2022-12-25T00:56:30.796Z,100405.99
2022-12-25T00:58:58.558Z,100408.05
2022-12-25T01:01:26.492Z,100409.25
2022-12-25T01:03:55.269Z,100413.23
2022-12-25T01:06:23.163Z,100419.45
2022-12-25T01:09:09.780Z,100421.64
2022-12-25T01:11:37.578Z,100418.20
2022-12-25T01:14:05.340Z,100417.20
2022-12-25T01:16:33.448Z,100420.37
2022-12-25T01:19:01.820Z,100427.35
2022-12-25T01:21:30.156Z,100431.58
2022-12-25T01:23:58.153Z,100436.04
2022-12-25T01:26:27.211Z,100440.57
2022-12-25T01:28:55.204Z,100444.54
2022-12-25T01:31:24.558Z,100445.82
2022-12-25T01:33:52.807Z,100451.78
2022-12-25T01:36:25.683Z,100455.52
2022-12-25T01:38:54.285Z,100453.35
2022-12-25T01:41:24.069Z,100448.86
2022-12-25T01:43:59.462Z,100447.76
2022-12-25T01:46:27.468Z,100444.45
2022-12-25T01:48:57.237Z,100451.27
2022-12-25T01:51:29.788Z,100444.10
2022-12-25T01:54:00.543Z,100446.73
2022-12-25T01:56:29.019Z,100445.61
2022-12-25T01:58:57.441Z,100453.80
2022-12-25T02:01:25.520Z,100454.59
2022-12-25T02:03:59.280Z,100451.25
2022-12-25T02:06:30.636Z,100451.07
2022-12-25T02:08:59.241Z,100454.48
2022-12-25T02:11:45.814Z,100457.83
2022-12-25T02:14:13.675Z,100458.16
2022-12-25T02:16:57.879Z,100464.48
2022-12-25T02:20:10.047Z,100467.30
2022-12-25T02:23:11.699Z,100465.02
2022-12-25T02:25:53.548Z,100467.54
2022-12-25T02:28:26.242Z,100470.88
2022-12-25T02:31:03.275Z,100471.53
2022-12-25T02:33:57.646Z,100470.84
2022-12-25T02:36:28.342Z,100475.05
2022-12-25T02:39:17.551Z,100478.84
2022-12-25T02:41:47.792Z,100483.48
2022-12-25T02:44:37.238Z,100481.59
2022-12-25T02:47:25.822Z,100483.09
2022-12-25T02:50:13.326Z,100489.80
2022-12-25T02:53:01.624Z,100489.15
2022-12-25T02:55:52.787Z,100496.02
2022-12-25T02:58:40.861Z,100493.54
2022-12-25T03:01:33.909Z,100491.42
2022-12-25T03:04:24.732Z,100486.23
2022-12-25T03:07:14.738Z,100489.09
2022-12-25T03:10:06.337Z,100488.84
2022-12-25T03:12:50.768Z,100488.64
2022-12-25T03:15:38.162Z,100500.70
2022-12-25T03:18:10.367Z,100503.54
2022-12-25T03:20:56.903Z,100509.52
2022-12-25T03:23:47.981Z,100511.89
2022-12-25T03:26:35.092Z,100517.83
2022-12-25T03:29:03.318Z,100530.21
2022-12-25T03:36:09.416Z,100545.00
2022-12-25T03:39:13.604Z,100544.16
2022-12-25T03:42:20.837Z,100540.77
2022-12-25T03:45:38.087Z,100540.96
2022-12-25T03:48:27.884Z,100534.42
2022-12-25T03:51:22.241Z,100533.02
2022-12-25T03:54:13.872Z,100533.81
2022-12-25T03:57:01.629Z,100529.14
2022-12-25T03:59:48.112Z,100535.42
2022-12-25T04:02:34.541Z,100533.09
2022-12-25T04:05:21.357Z,100532.08
2022-12-25T04:08:07.768Z,100533.04
2022-12-25T04:10:54.269Z,100532.46
2022-12-25T04:13:40.895Z,100530.25
2022-12-25T04:16:27.482Z,100533.55
2022-12-25T04:19:14.139Z,100530.45
2022-12-25T04:22:00.691Z,100533.11
2022-12-25T04:24:47.240Z,100538.37
2022-12-25T04:27:33.797Z,100537.91
2022-12-25T04:30:20.395Z,100543.42
2022-12-25T04:33:06.878Z,100546.58
2022-12-25T04:35:53.240Z,100545.77
2022-12-25T04:38:22.291Z,100547.33
2022-12-25T04:40:50.007Z,100549.11
2022-12-25T04:43:17.717Z,100548.55
2022-12-25T04:45:53.293Z,100553.23
2022-12-25T04:48:21.198Z,100554.58
2022-12-25T04:50:49.090Z,100552.96
2022-12-25T04:53:17.957Z,100559.48
2022-12-25T04:55:45.756Z,100564.45
2022-12-25T04:58:14.094Z,100563.29
2022-12-25T05:00:42.025Z,100565.80
2022-12-25T05:03:10.049Z,100570.41
2022-12-25T05:05:40.468Z,100572.02
2022-12-25T05:08:08.435Z,100571.34
2022-12-25T05:10:39.947Z,100570.87
2022-12-25T05:13:07.636Z,100574.77
2022-12-25T05:15:35.435Z,100571.80
2022-12-25T05:18:03.433Z,100581.86
2022-12-25T05:20:34.827Z,100589.05
2022-12-25T05:23:10.777Z,100594.05
2022-12-25T05:25:40.462Z,100592.91
2022-12-25T05:28:08.195Z,100589.55
2022-12-25T05:30:36.006Z,100590.00
2022-12-25T05:33:04.028Z,100588.67
2022-12-25T05:35:32.114Z,100592.84
2022-12-25T05:37:59.816Z,100593.14
2022-12-25T05:40:27.722Z,100599.20
2022-12-25T05:42:55.446Z,100595.89
2022-12-25T05:45:23.157Z,100594.29
2022-12-25T05:47:50.906Z,100596.98
2022-12-25T05:50:18.675Z,100599.77
2022-12-25T05:52:46.391Z,100602.27
2022-12-25T05:55:14.196Z,100613.14
2022-12-25T05:57:41.913Z,100613.44
2022-12-25T06:00:10.381Z,100616.60
2022-12-25T06:02:41.160Z,100620.64
2022-12-25T06:05:09.940Z,100621.22
2022-12-25T06:07:37.672Z,100619.15
2022-12-25T06:10:06.648Z,100630.80
2022-12-25T06:12:34.543Z,100634.50
2022-12-25T06:15:02.519Z,100635.22
2022-12-25T06:17:30.258Z,100631.88
2022-12-25T06:19:58.386Z,100631.79
2022-12-25T06:22:30.757Z,100632.70
2022-12-25T06:24:59.098Z,100638.44
2022-12-25T06:27:28.386Z,100645.70
2022-12-25T06:29:56.159Z,100653.16
2022-12-25T06:32:23.860Z,100654.85
2022-12-25T06:34:51.623Z,100659.41
2022-12-25T06:37:19.871Z,100656.92
2022-12-25T06:39:48.442Z,100653.54
2022-12-25T06:42:16.294Z,100652.98
2022-12-25T06:44:44.833Z,100652.71
2022-12-25T06:47:12.610Z,100651.06
2022-12-25T06:49:40.423Z,100648.21
2022-12-25T06:52:08.234Z,100651.77
2022-12-25T06:54:35.982Z,100654.02
2022-12-25T06:57:03.790Z,100655.88
2022-12-25T06:59:31.484Z,100659.23
2022-12-25T07:01:59.596Z,100667.27
2022-12-25T07:04:35.748Z,100670.30
2022-12-25T07:07:09.005Z,100661.86
2022-12-25T07:09:39.342Z,100664.06
2022-12-25T07:12:19.829Z,100659.70
2022-12-25T07:14:50.542Z,100658.10
2022-12-25T07:17:19.805Z,100664.56
2022-12-25T07:19:48.208Z,100672.19
2022-12-25T07:22:16.829Z,100675.63
2022-12-25T07:24:44.636Z,100682.98
2022-12-25T07:27:12.557Z,100684.40
2022-12-25T07:29:40.389Z,100694.59
2022-12-25T07:32:08.436Z,100689.71
2022-12-25T07:34:36.274Z,100683.37
2022-12-25T07:37:04.064Z,100682.39
2022-12-25T07:39:31.916Z,100682.38
2022-12-25T07:41:59.649Z,100673.59
2022-12-25T07:44:28.847Z,100675.80
2022-12-25T07:46:56.938Z,100675.19
2022-12-25T07:49:24.689Z,100669.27
2022-12-25T07:51:52.424Z,100670.05
2022-12-25T07:54:20.864Z,100675.19
2022-12-25T07:56:52.576Z,100676.11
2022-12-25T07:59:20.633Z,100675.48
2022-12-25T08:01:50.465Z,100676.13
2022-12-25T08:04:18.612Z,100674.47
2022-12-25T08:06:46.522Z,100677.84
2022-12-25T08:09:14.283Z,100679.52
2022-12-25T08:11:46.673Z,100684.85
2022-12-25T08:14:14.709Z,100678.20
2022-12-25T08:16:42.644Z,100681.88
2022-12-25T08:19:11.267Z,100687.23
2022-12-25T08:21:39.181Z,100689.73
2022-12-25T08:24:07.178Z,100698.41
2022-12-25T08:26:34.870Z,100705.33
2022-12-25T08:29:02.724Z,100715.39
2022-12-25T08:31:31.062Z,100716.06
2022-12-25T08:33:59.786Z,100721.96
2022-12-25T08:36:27.607Z,100722.27
2022-12-25T08:39:02.071Z,100721.67
2022-12-25T08:41:31.766Z,100726.95
2022-12-25T08:43:59.500Z,100724.83
2022-12-25T08:46:27.273Z,100725.98
2022-12-25T08:48:56.796Z,100727.29
2022-12-25T08:51:26.043Z,100729.48
2022-12-25T08:53:59.323Z,100735.41
2022-12-25T08:56:27.171Z,100732.56
2022-12-25T08:58:54.938Z,100730.64
2022-12-25T09:01:22.868Z,100729.14
2022-12-25T09:03:50.779Z,100731.86
2022-12-25T09:06:18.748Z,100734.73
2022-12-25T09:08:49.487Z,100730.17
2022-12-25T09:11:19.948Z,100733.77
2022-12-25T09:13:49.133Z,100729.89
2022-12-25T09:16:20.579Z,100727.21
2022-12-25T09:18:49.474Z,100725.05
2022-12-25T09:21:17.919Z,100723.04
2022-12-25T09:23:45.709Z,100726.46
2022-12-25T09:26:15.768Z,100729.06
2022-12-25T09:28:50.607Z,100726.73
2022-12-25T09:31:21.512Z,100720.37
2022-12-25T09:33:50.816Z,100715.95
2022-12-25T09:36:18.715Z,100717.39
2022-12-25T09:38:46.517Z,100717.04
2022-12-25T09:41:23.713Z,100714.52
2022-12-25T09:43:56.141Z,100715.06
2022-12-25T09:46:33.060Z,100720.21
2022-12-25T09:49:13.143Z,100721.85
2022-12-25T09:51:44.463Z,100725.67
2022-12-25T09:54:35.155Z,100723.75
2022-12-25T09:57:03.663Z,100721.66
2022-12-25T09:59:31.462Z,100722.01
2022-12-25T10:02:06.310Z,100716.66
2022-12-25T10:04:47.640Z,100712.54
2022-12-25T10:07:37.322Z,100707.35
2022-12-25T10:10:23.585Z,100704.25
2022-12-25T10:12:51.440Z,100707.55
2022-12-25T10:15:39.226Z,100703.57
2022-12-25T10:18:22.150Z,100698.46
2022-12-25T10:20:55.057Z,100691.05
2022-12-25T10:23:26.488Z,100686.21
2022-12-25T10:25:54.932Z,100680.98
2022-12-25T10:28:30.596Z,100675.84
2022-12-25T10:31:02.407Z,100671.19
2022-12-25T10:33:31.086Z,100668.42
2022-12-25T10:36:00.083Z,100668.02
2022-12-25T10:38:27.973Z,100664.86
2022-12-25T10:41:20.966Z,100660.10
2022-12-25T10:43:54.823Z,100664.68
2022-12-25T10:46:24.948Z,100664.19
2022-12-25T10:48:58.036Z,100662.91
2022-12-25T10:51:33.708Z,100660.91
2022-12-25T10:54:19.799Z,100657.09
2022-12-25T10:56:54.559Z,100650.92
2022-12-25T10:59:23.344Z,100643.98
2022-12-25T11:01:55.139Z,100641.30
2022-12-25T11:04:28.686Z,100641.61
2022-12-25T11:07:14.234Z,100636.46
2022-12-25T11:09:49.837Z,100632.30
2022-12-25T11:12:20.084Z,100625.90
2022-12-25T11:14:57.146Z,100622.98
2022-12-25T11:17:25.933Z,100619.04
2022-12-25T11:19:58.622Z,100619.23
2022-12-25T11:22:28.893Z,100620.51
2022-12-25T11:24:56.627Z,100625.67
2022-12-25T11:27:28.008Z,100630.70
2022-12-25T11:29:59.271Z,100627.61
2022-12-25T11:32:30.735Z,100622.60
2022-12-25T11:34:59.289Z,100623.29
2022-12-25T11:37:38.568Z,100618.80
2022-12-25T11:40:13.083Z,100621.56
2022-12-25T11:42:45.386Z,100619.85
2022-12-25T11:45:24.713Z,100620.13
2022-12-25T11:48:16.145Z,100620.46
2022-12-25T11:50:48.150Z,100614.31
2022-12-25T11:53:19.040Z,100610.72
2022-12-25T11:55:54.817Z,100612.56
2022-12-25T11:58:45.210Z,100608.70
2022-12-25T12:01:30.480Z,100608.67
2022-12-25T12:04:01.097Z,100599.05
2022-12-25T12:06:48.090Z,100595.29
2022-12-25T12:09:31.183Z,100601.70
2022-12-25T12:12:08.601Z,100598.05
2022-12-25T12:15:03.961Z,100593.99
2022-12-25T12:17:32.158Z,100594.20
2022-12-25T12:20:13.831Z,100595.05
2022-12-25T12:22:49.112Z,100591.97
2022-12-25T12:25:18.707Z,100586.69
2022-12-25T12:27:54.848Z,100582.87
2022-12-25T12:30:31.486Z,100576.02
2022-12-25T12:33:01.845Z,100582.30
2022-12-25T12:35:35.745Z,100578.46
2022-12-25T12:38:18.347Z,100576.79
2022-12-25T12:40:57.313Z,100579.70
2022-12-25T12:43:30.256Z,100575.91
2022-12-25T12:46:06.481Z,100580.89
2022-12-25T12:48:41.523Z,100579.13
2022-12-25T12:51:34.160Z,100583.11
2022-12-25T12:54:24.313Z,100590.44
2022-12-25T12:57:23.006Z,100580.60
2022-12-25T12:59:50.780Z,100571.86
2022-12-25T13:02:46.772Z,100561.94
2022-12-25T13:05:34.955Z,100553.01
2022-12-25T13:08:41.808Z,100555.32
2022-12-25T13:11:20.608Z,100562.45
2022-12-25T13:13:50.690Z,100564.70
2022-12-25T13:16:31.967Z,100563.57
2022-12-25T13:19:04.477Z,100564.14
2022-12-25T13:21:33.156Z,100560.91
2022-12-25T13:24:03.154Z,100553.77
2022-12-25T13:26:31.126Z,100552.38
2022-12-25T13:28:59.078Z,100560.56
2022-12-25T13:31:28.836Z,100567.95
2022-12-25T13:33:59.973Z,100570.39
2022-12-25T13:36:29.815Z,100560.76
2022-12-25T13:38:58.621Z,100547.48
2022-12-25T13:41:51.567Z,100541.77
2022-12-25T13:44:26.723Z,100534.00
2022-12-25T13:46:54.528Z,100527.46
2022-12-25T13:49:24.361Z,100517.36
2022-12-25T13:51:52.117Z,100512.99
2022-12-25T13:54:19.904Z,100517.01
2022-12-25T13:56:50.761Z,100517.90
2022-12-25T13:59:21.528Z,100525.41
2022-12-25T14:01:50.240Z,100520.30
2022-12-25T14:04:21.450Z,100522.36
2022-12-25T14:06:50.058Z,100520.71
2022-12-25T14:09:18.468Z,100529.55
2022-12-25T14:11:50.020Z,100530.38
2022-12-25T14:14:22.708Z,100532.77
2022-12-25T14:16:53.465Z,100520.31
2022-12-25T14:19:26.349Z,100528.14
2022-12-25T14:22:05.175Z,100529.98
2022-12-25T14:24:34.235Z,100529.67
2022-12-25T14:27:04.751Z,100532.30
2022-12-25T14:29:39.657Z,100538.02
2022-12-25T14:32:08.242Z,100538.91
2022-12-25T14:34:36.040Z,100533.83
2022-12-25T14:37:04.274Z,100533.36
2022-12-25T14:39:38.648Z,100528.77
2022-12-25T14:42:16.900Z,100525.20
2022-12-25T14:44:56.994Z,100522.73
2022-12-25T14:47:26.054Z,100522.31
2022-12-25T14:49:54.695Z,100518.35
2022-12-25T14:52:27.067Z,100525.54
2022-12-25T14:55:03.476Z,100530.27
2022-12-25T14:57:38.122Z,100532.60
2022-12-25T15:00:23.674Z,100533.95
2022-12-25T15:02:53.642Z,100530.61
2022-12-25T15:05:29.601Z,100522.23
2022-12-25T15:08:06.951Z,100507.07
2022-12-25T15:13:24.388Z,100513.02
2022-12-25T15:16:14.717Z,100505.30
2022-12-25T15:18:44.662Z,100516.95
2022-12-25T15:21:33.461Z,100524.06
2022-12-25T15:24:01.723Z,100513.40
2022-12-25T15:26:30.961Z,100510.56
2022-12-25T15:28:58.912Z,100501.30
2022-12-25T15:31:31.635Z,100500.13
2022-12-25T15:34:01.882Z,100501.45
2022-12-25T15:36:29.838Z,100487.02
2022-12-25T15:38:57.892Z,100486.19
2022-12-25T15:41:49.274Z,100486.13
2022-12-25T15:44:17.558Z,100490.29
2022-12-25T15:46:49.027Z,100487.85
2022-12-25T15:49:17.165Z,100488.06
2022-12-25T15:51:45.985Z,100486.52
2022-12-25T15:54:13.925Z,100492.12
2022-12-25T15:56:44.259Z,100483.20
2022-12-25T15:59:13.525Z,100470.20
2022-12-25T16:01:50.359Z,100466.60
2022-12-25T16:04:20.814Z,100459.67
2022-12-25T16:06:49.262Z,100445.79
2022-12-25T16:09:18.147Z,100446.94
2022-12-25T16:11:46.712Z,100441.56
2022-12-25T16:14:15.042Z,100437.45
2022-12-25T16:16:42.851Z,100432.95
2022-12-25T16:19:10.684Z,100435.52
2022-12-25T16:21:41.614Z,100434.19
2022-12-25T16:24:09.849Z,100432.02
2022-12-25T16:26:37.718Z,100425.59
2022-12-25T16:29:07.418Z,100424.81
2022-12-25T16:31:36.858Z,100426.20
2022-12-25T16:34:05.510Z,100421.82
2022-12-25T16:36:33.926Z,100415.55
2022-12-25T16:39:02.831Z,100421.91
2022-12-25T16:41:30.753Z,100413.11
2022-12-25T16:43:58.567Z,100420.80
2022-12-25T16:46:26.389Z,100428.73
2022-12-25T16:48:55.277Z,100429.73
2022-12-25T16:51:23.634Z,100431.17
2022-12-25T16:53:53.209Z,100431.55
2022-12-25T16:56:25.675Z,100436.20
2022-12-25T16:58:54.058Z,100438.54
2022-12-25T17:01:23.126Z,100440.11
2022-12-25T17:03:52.021Z,100439.93
2022-12-25T17:06:24.868Z,100438.34
2022-12-25T17:08:55.515Z,100421.38
2022-12-25T17:11:27.285Z,100402.77
2022-12-25T17:13:56.463Z,100393.50
2022-12-25T17:16:27.053Z,100396.60
2022-12-25T17:18:56.671Z,100385.79
2022-12-25T17:21:26.733Z,100381.50
2022-12-25T17:24:01.642Z,100389.35
2022-12-25T17:26:32.870Z,100402.91
2022-12-25T17:29:01.285Z,100409.59
2022-12-25T17:31:29.576Z,100410.13
2022-12-25T17:33:57.735Z,100401.75
2022-12-25T17:36:25.790Z,100402.79
2022-12-25T17:38:55.420Z,100393.87
2022-12-25T17:41:24.115Z,100379.67
2022-12-25T17:43:52.124Z,100371.49
2022-12-25T17:46:22.307Z,100370.76
2022-12-25T17:48:52.574Z,100371.45
2022-12-25T17:51:23.232Z,100363.51
2022-12-25T17:53:56.861Z,100362.28
2022-12-25T17:56:25.560Z,100357.55
2022-12-25T17:58:56.632Z,100351.57
2022-12-25T18:01:26.412Z,100341.34
2022-12-25T18:03:55.105Z,100344.04
2022-12-25T18:06:26.192Z,100342.77
2022-12-25T18:08:55.203Z,100338.21
2022-12-25T18:11:27.634Z,100331.43
2022-12-25T18:13:58.048Z,100327.02
2022-12-25T18:16:27.274Z,100332.61
2022-12-25T18:18:55.203Z,100328.21
2022-12-25T18:21:23.738Z,100323.17
2022-12-25T18:23:52.029Z,100318.67
2022-12-25T18:26:20.417Z,100315.02
2022-12-25T18:28:49.567Z,100314.76
2022-12-25T18:31:20.785Z,100315.16
2022-12-25T18:33:49.708Z,100311.27
2022-12-25T18:36:20.744Z,100311.77
2022-12-25T18:38:50.121Z,100309.05
2022-12-25T18:41:18.269Z,100308.80
2022-12-25T18:43:53.880Z,100303.30
2022-12-25T18:46:25.381Z,100299.39
2022-12-25T18:48:57.104Z,100299.60
2022-12-25T18:51:27.725Z,100297.95
2022-12-25T18:56:17.549Z,100284.02
2022-12-25T18:58:47.177Z,100280.48
2022-12-25T19:01:19.306Z,100281.09
2022-12-25T19:03:49.524Z,100280.21
2022-12-25T19:06:19.969Z,100280.66
2022-12-25T19:08:48.370Z,100286.19
2022-12-25T19:11:16.661Z,100287.75
2022-12-25T19:13:44.679Z,100281.73
2022-12-25T19:16:12.854Z,100281.79
2022-12-25T19:18:40.838Z,100275.43
2022-12-25T19:21:10.123Z,100264.31
2022-12-25T19:23:38.748Z,100259.44
2022-12-25T19:26:08.333Z,100251.95
2022-12-25T19:28:37.650Z,100250.73
2022-12-25T19:31:07.754Z,100248.67
2022-12-25T19:33:36.982Z,100240.25
2022-12-25T19:36:08.185Z,100235.27
2022-12-25T19:38:36.282Z,100226.06
2022-12-25T19:41:12.647Z,100218.69
2022-12-25T19:43:41.619Z,100207.83
2022-12-25T19:46:23.954Z,100200.86
2022-12-25T19:48:52.441Z,100189.52
2022-12-25T19:51:27.201Z,100189.85
2022-12-25T19:53:58.234Z,100185.70
2022-12-25T19:56:27.922Z,100173.18
2022-12-25T19:58:56.787Z,100167.36
2022-12-25T20:01:27.040Z,100155.64
2022-12-25T20:03:55.396Z,100152.45
2022-12-25T20:06:29.611Z,100152.34
2022-12-25T20:09:01.239Z,100152.39
2022-12-25T20:11:30.234Z,100159.92
2022-12-25T20:13:58.766Z,100165.69
2022-12-25T20:16:26.868Z,100173.45
2022-12-25T20:18:55.886Z,100181.11
2022-12-25T20:21:24.456Z,100176.69
2022-12-25T20:23:54.697Z,100166.06
2022-12-25T20:26:25.378Z,100162.41
2022-12-25T20:28:53.178Z,100170.16
2022-12-25T20:31:30.023Z,100169.55
2022-12-25T20:34:00.894Z,100166.80
2022-12-25T20:36:36.099Z,100164.53
2022-12-25T20:39:09.437Z,100155.57
2022-12-25T20:41:38.902Z,100157.01
2022-12-25T20:44:09.829Z,100150.70
2022-12-25T20:46:37.706Z,100144.67
2022-12-25T20:49:05.815Z,100143.83
2022-12-25T20:51:33.610Z,100146.48
2022-12-25T20:54:06.435Z,100148.94
2022-12-25T20:56:34.461Z,100137.14
2022-12-25T20:59:02.286Z,100130.00
2022-12-25T21:01:31.887Z,100126.19
2022-12-25T21:03:59.876Z,100124.97
2022-12-25T21:06:27.805Z,100114.78
2022-12-25T21:08:55.848Z,100109.25
2022-12-25T21:11:23.633Z,100099.61
2022-12-25T21:13:51.657Z,100097.41
2022-12-25T21:16:22.115Z,100093.19
2022-12-25T21:18:52.324Z,100097.23
2022-12-25T21:21:21.188Z,100105.09
2022-12-25T21:23:48.947Z,100118.04
2022-12-25T21:26:24.920Z,100124.14
2022-12-25T21:28:55.323Z,100130.94
2022-12-25T21:31:24.382Z,100135.92
2022-12-25T21:33:53.961Z,100140.86
2022-12-25T21:36:30.123Z,100140.14
2022-12-25T21:39:00.348Z,100130.67
2022-12-25T21:41:30.162Z,100127.34
2022-12-25T21:43:58.299Z,100125.80
2022-12-25T21:46:26.545Z,100126.69
2022-12-25T21:48:55.543Z,100120.27
2022-12-25T21:51:48.293Z,100125.02
2022-12-25T21:54:17.230Z,100119.59
2022-12-25T21:56:47.027Z,100118.83
2022-12-25T21:59:17.321Z,100121.04
2022-12-25T22:01:45.912Z,100116.71
2022-12-25T22:04:15.242Z,100113.23
2022-12-25T22:07:02.074Z,100113.61
2022-12-25T22:09:29.980Z,100114.90
2022-12-25T22:12:17.342Z,100109.30
2022-12-25T22:14:56.299Z,100101.38
2022-12-25T22:17:45.811Z,100091.98
2022-12-25T22:20:19.442Z,100093.08
2022-12-25T22:22:48.035Z,100077.48
2022-12-25T22:25:16.593Z,100081.73
2022-12-25T22:27:45.697Z,100082.61
2022-12-25T22:30:19.641Z,100075.20
2022-12-25T22:32:48.141Z,100069.67
2022-12-25T22:35:16.725Z,100066.19
2022-12-25T22:37:45.284Z,100067.95
2022-12-25T22:40:16.565Z,100066.07
2022-12-25T22:42:44.417Z,100062.42
2022-12-25T22:45:12.618Z,100059.72
2022-12-25T22:47:41.067Z,100056.61
2022-12-25T22:50:09.960Z,100056.67
2022-12-25T22:52:38.125Z,100055.45
2022-12-25T22:55:07.804Z,100048.48
2022-12-25T22:57:36.229Z,100038.95
2022-12-25T23:00:06.753Z,100036.18
2022-12-25T23:02:35.217Z,100033.98
2022-12-25T23:05:03.721Z,100018.92
2022-12-25T23:07:31.582Z,100020.92
2022-12-25T23:09:59.348Z,100026.45
2022-12-25T23:12:45.788Z,100026.39
2022-12-25T23:15:13.503Z,100023.40
2022-12-25T23:18:00.306Z,100020.48
2022-12-25T23:20:46.733Z,100031.82
2022-12-25T23:23:34.832Z,100040.84
2022-12-25T23:26:09.219Z,100025.50
2022-12-25T23:28:57.386Z,100025.23
2022-12-25T23:31:30.046Z,100039.01
2022-12-25T23:33:58.243Z,100033.27
2022-12-25T23:36:26.348Z,100042.45
2022-12-25T23:38:54.523Z,100036.23
2022-12-25T23:41:22.364Z,100014.61
2022-12-25T23:43:50.346Z,99997.45
2022-12-25T23:46:18.102Z,99991.26
2022-12-25T23:48:46.022Z,99999.63
2022-12-25T23:51:13.699Z,99994.25
2022-12-25T23:53:41.478Z,99997.17
2022-12-25T23:56:10.615Z,99997.96
2022-12-25T23:58:38.435Z,100000.63
